Time;durP1;ratioP1;P1;durP2;ratioP2;P2;SDS_P1;SDS_P2;PMS_P1;PMS_P2;Temp;Humidity;BMP_temperature;BMP_pressure;BME280_temperature;BME280_humidity;BME280_pressure;Samples;Min_cycle;Max_cycle;Signal;HPM_P1;HPM_P2
2023/07/13 00:00:36;;;;;;;10.38;2.30;;;17.60;99.90;;;;;;5054436;28;20525;-71
2023/07/13 00:03:02;;;;;;;5.90;2.10;;;17.60;99.90;;;;;;5049345;28;20048;-71
2023/07/13 00:05:28;;;;;;;6.85;2.20;;;17.60;99.90;;;;;;5052666;28;20045;-72
2023/07/13 00:07:54;;;;;;;9.60;2.45;;;17.60;99.90;;;;;;5048112;28;20035;-70
2023/07/13 00:10:21;;;;;;;7.28;2.55;;;17.50;99.90;;;;;;5053768;28;20045;-72
2023/07/13 00:12:47;;;;;;;7.28;2.40;;;17.50;99.90;;;;;;5062870;28;20522;-72
2023/07/13 00:15:17;;;;;;;8.40;2.42;;;17.50;99.90;;;;;;5061329;28;20061;-70
2023/07/13 00:17:47;;;;;;;6.07;2.15;;;17.50;99.90;;;;;;5035968;28;20052;-71
2023/07/13 00:20:12;;;;;;;6.72;2.35;;;17.40;99.90;;;;;;5057737;28;20072;-71
2023/07/13 00:22:38;;;;;;;6.90;2.20;;;17.40;99.90;;;;;;5054358;28;20566;-71
2023/07/13 00:25:04;;;;;;;8.05;2.70;;;17.40;99.90;;;;;;5057300;28;20063;-71
2023/07/13 00:27:31;;;;;;;6.63;2.40;;;17.30;99.90;;;;;;5046763;28;20644;-72
2023/07/13 00:29:58;;;;;;;8.75;2.45;;;17.30;99.90;;;;;;5038013;28;20450;-71
2023/07/13 00:32:25;;;;;;;7.82;2.35;;;17.30;99.90;;;;;;5055240;28;20047;-70
2023/07/13 00:34:51;;;;;;;8.38;2.42;;;17.20;99.90;;;;;;5053471;28;20492;-71
2023/07/13 00:37:17;;;;;;;6.13;2.30;;;17.20;99.90;;;;;;5059973;28;20649;-71
2023/07/13 00:39:43;;;;;;;10.05;2.80;;;17.20;99.90;;;;;;5040549;28;20044;-71
2023/07/13 00:42:09;;;;;;;9.35;2.65;;;17.20;99.90;;;;;;5040899;28;20033;-71
2023/07/13 00:44:35;;;;;;;9.90;2.80;;;17.30;99.90;;;;;;5050342;28;20056;-71
2023/07/13 00:47:00;;;;;;;7.00;2.60;;;17.20;99.90;;;;;;5038036;28;20036;-73
2023/07/13 00:49:30;;;;;;;9.30;3.08;;;17.20;99.90;;;;;;5033526;28;20487;-71
2023/07/13 00:52:05;;;;;;;6.45;2.50;;;17.30;99.90;;;;;;5056531;28;20053;-72
2023/07/13 00:54:37;;;;;;;7.78;2.40;;;17.20;99.90;;;;;;5054255;28;21564;-73
2023/07/13 00:57:07;;;;;;;8.23;2.75;;;17.20;99.90;;;;;;5031065;28;20049;-72
2023/07/13 00:59:36;;;;;;;10.20;2.80;;;17.20;99.90;;;;;;5055769;28;20095;-72
2023/07/13 01:02:03;;;;;;;7.93;2.78;;;17.20;99.90;;;;;;5049780;28;20423;-71
2023/07/13 01:04:29;;;;;;;11.55;2.67;;;17.10;99.90;;;;;;5023534;28;20052;-72
2023/07/13 01:06:56;;;;;;;8.68;2.22;;;17.10;99.90;;;;;;5045036;28;20068;-72
2023/07/13 01:09:22;;;;;;;9.30;2.58;;;17.10;99.90;;;;;;5050553;28;20044;-72
2023/07/13 01:11:48;;;;;;;8.32;2.63;;;17.10;99.90;;;;;;5052045;28;20138;-72
2023/07/13 01:14:14;;;;;;;7.50;2.47;;;17.10;99.90;;;;;;5061156;28;20047;-71
2023/07/13 01:16:42;;;;;;;8.43;2.42;;;17.10;99.90;;;;;;5037645;28;20442;-71
2023/07/13 01:19:35;;;;;;;7.97;2.40;;;17.10;99.90;;;;;;5055912;28;20048;-71
2023/07/13 01:22:02;;;;;;;9.48;2.80;;;17.10;99.90;;;;;;5042440;28;20056;-71
2023/07/13 01:24:28;;;;;;;8.88;2.33;;;17.10;99.90;;;;;;5054158;28;20049;-72
2023/07/13 01:26:54;;;;;;;8.35;2.47;;;17.10;99.90;;;;;;5048502;28;20044;-72
2023/07/13 01:29:21;;;;;;;7.97;2.58;;;17.10;99.90;;;;;;5029748;28;20044;-71
2023/07/13 01:31:47;;;;;;;7.93;2.70;;;17.20;99.90;;;;;;5046159;28;20045;-71
2023/07/13 01:34:13;;;;;;;8.85;2.58;;;17.20;99.90;;;;;;5054743;28;20059;-72
2023/07/13 01:36:38;;;;;;;9.88;2.67;;;17.20;99.90;;;;;;5054325;28;20052;-71
2023/07/13 01:39:04;;;;;;;10.20;2.92;;;17.20;99.90;;;;;;5034006;28;20052;-71
2023/07/13 01:41:30;;;;;;;10.52;2.65;;;17.20;99.90;;;;;;5042753;28;20481;-71
2023/07/13 01:43:56;;;;;;;10.02;2.92;;;17.20;99.90;;;;;;5024458;28;20045;-72
2023/07/13 01:46:21;;;;;;;11.00;2.92;;;17.30;99.90;;;;;;5054577;28;20134;-72
2023/07/13 01:48:47;;;;;;;12.15;2.90;;;17.30;99.90;;;;;;5038312;28;20044;-71
2023/07/13 01:51:13;;;;;;;10.65;3.75;;;17.30;99.90;;;;;;5055968;28;20499;-72
2023/07/13 01:53:39;;;;;;;12.82;3.00;;;17.30;99.90;;;;;;5047517;28;20146;-72
2023/07/13 01:56:05;;;;;;;10.20;3.20;;;17.30;99.90;;;;;;5040370;28;20581;-71
2023/07/13 01:58:31;;;;;;;11.73;3.22;;;17.30;99.90;;;;;;5048789;28;20102;-71
2023/07/13 02:00:59;;;;;;;9.75;3.00;;;17.30;99.90;;;;;;5048058;28;20087;-72
2023/07/13 02:03:25;;;;;;;10.95;2.97;;;17.30;99.90;;;;;;5049879;28;20412;-71
2023/07/13 02:05:53;;;;;;;10.80;3.20;;;17.30;99.90;;;;;;5062667;28;20051;-71
2023/07/13 02:08:19;;;;;;;10.25;2.90;;;17.30;99.90;;;;;;5055209;28;20049;-72
2023/07/13 02:10:45;;;;;;;11.90;3.28;;;17.30;99.90;;;;;;5053922;28;20040;-72
2023/07/13 02:13:12;;;;;;;11.85;3.40;;;17.30;99.90;;;;;;5051090;28;20056;-71
2023/07/13 02:15:40;;;;;;;10.15;3.35;;;17.30;99.90;;;;;;5051082;28;20707;-71
2023/07/13 02:18:06;;;;;;;9.43;3.28;;;17.30;99.90;;;;;;5026621;28;20040;-71
2023/07/13 02:20:32;;;;;;;9.77;3.03;;;17.30;99.90;;;;;;5022237;28;20049;-71
2023/07/13 02:22:58;;;;;;;11.93;3.63;;;17.30;99.90;;;;;;5055160;28;20052;-71
2023/07/13 02:25:24;;;;;;;13.05;3.70;;;17.30;99.90;;;;;;5058749;28;20541;-72
2023/07/13 02:27:50;;;;;;;10.60;3.25;;;17.30;99.90;;;;;;5045890;28;20041;-72
2023/07/13 02:30:16;;;;;;;8.15;2.78;;;17.30;99.90;;;;;;5035117;28;20041;-72
2023/07/13 02:32:43;;;;;;;11.55;2.90;;;17.30;99.90;;;;;;5056500;28;20055;-72
2023/07/13 02:35:09;;;;;;;11.52;3.15;;;17.30;99.90;;;;;;5051866;28;20057;-72
2023/07/13 02:37:35;;;;;;;9.77;2.88;;;17.30;99.90;;;;;;5028816;28;20048;-71
2023/07/13 02:40:00;;;;;;;11.48;3.13;;;17.30;99.90;;;;;;5029367;28;20428;-71
2023/07/13 02:42:26;;;;;;;11.05;3.08;;;17.30;99.90;;;;;;5056858;28;20048;-71
2023/07/13 02:44:52;;;;;;;11.18;3.83;;;17.30;99.90;;;;;;5052670;28;20167;-71
2023/07/13 02:47:18;;;;;;;10.50;3.33;;;17.30;99.90;;;;;;5028315;28;20037;-72
2023/07/13 02:49:44;;;;;;;10.52;2.75;;;17.30;99.90;;;;;;5041205;28;20080;-72
2023/07/13 02:52:09;;;;;;;11.73;2.78;;;17.20;99.90;;;;;;5038388;28;20052;-71
2023/07/13 02:54:35;;;;;;;9.02;3.05;;;17.20;99.90;;;;;;5055992;28;20067;-71
2023/07/13 02:57:01;;;;;;;12.10;3.05;;;17.30;99.90;;;;;;5042630;28;20484;-72
2023/07/13 02:59:26;;;;;;;8.88;3.00;;;17.20;99.90;;;;;;5025776;28;20057;-71
2023/07/13 03:01:52;;;;;;;12.35;3.17;;;17.20;99.90;;;;;;5052762;28;20049;-72
2023/07/13 03:04:19;;;;;;;10.52;2.80;;;17.20;99.90;;;;;;5052323;28;20510;-71
2023/07/13 03:06:45;;;;;;;8.30;3.10;;;17.20;99.90;;;;;;5040943;28;20048;-72
2023/07/13 03:09:12;;;;;;;11.52;2.95;;;17.20;99.90;;;;;;5051186;28;20163;-72
2023/07/13 03:11:38;;;;;;;11.13;3.28;;;17.20;99.90;;;;;;5052748;28;20418;-72
2023/07/13 03:14:04;;;;;;;12.57;3.13;;;17.20;99.90;;;;;;5047754;28;20053;-72
2023/07/13 03:16:30;;;;;;;11.73;3.10;;;17.20;99.90;;;;;;5028326;28;20074;-72
2023/07/13 03:18:56;;;;;;;13.05;3.33;;;17.20;99.90;;;;;;5037241;28;20053;-71
2023/07/13 03:21:21;;;;;;;13.45;3.45;;;17.20;99.90;;;;;;5029791;28;20037;-71
2023/07/13 03:23:47;;;;;;;9.35;3.10;;;17.20;99.90;;;;;;5052594;28;20040;-72
2023/07/13 03:26:18;;;;;;;11.38;3.35;;;17.20;99.90;;;;;;5056550;28;20453;-71
2023/07/13 03:28:45;;;;;;;12.02;3.50;;;17.10;99.90;;;;;;5051645;28;20110;-72
2023/07/13 03:31:18;;;;;;;11.23;3.15;;;17.20;99.90;;;;;;5046517;28;20076;-72
2023/07/13 03:33:45;;;;;;;10.80;3.20;;;17.10;99.90;;;;;;5048273;28;20048;-72
2023/07/13 03:36:22;;;;;;;9.32;3.13;;;17.10;99.90;;;;;;5051245;28;20048;-72
2023/07/13 03:38:50;;;;;;;10.93;3.05;;;17.10;99.90;;;;;;5051904;28;20057;-71
2023/07/13 03:41:16;;;;;;;9.20;2.92;;;17.10;99.90;;;;;;5052974;28;20056;-72
2023/07/13 03:43:42;;;;;;;12.07;3.40;;;17.10;99.90;;;;;;5032366;28;20045;-72
2023/07/13 03:46:09;;;;;;;8.52;3.33;;;17.10;99.90;;;;;;5034552;28;20036;-71
2023/07/13 03:48:35;;;;;;;14.50;3.83;;;17.10;99.90;;;;;;5054312;28;20090;-71
2023/07/13 03:51:00;;;;;;;10.77;3.22;;;17.10;99.90;;;;;;5029230;28;20057;-72
2023/07/13 03:53:26;;;;;;;9.15;3.22;;;17.10;99.90;;;;;;5030055;28;20443;-71
2023/07/13 03:55:52;;;;;;;10.75;3.40;;;17.10;99.90;;;;;;5039774;28;20044;-71
2023/07/13 03:58:36;;;;;;;8.45;3.47;;;17.10;99.90;;;;;;5050734;28;20048;-72
2023/07/13 04:01:05;;;;;;;9.63;3.22;;;17.10;99.90;;;;;;5034813;28;20052;-72
2023/07/13 04:03:32;;;;;;;9.73;3.65;;;17.10;99.90;;;;;;5044057;28;20052;-72
2023/07/13 04:05:59;;;;;;;;;;;17.00;99.90;;;;;;5033643;28;20044;-72
2023/07/13 04:08:29;;;;;;;7.50;3.10;;;17.00;99.90;;;;;;5048367;28;19924;-72
2023/07/13 04:10:55;;;;;;;11.40;3.38;;;17.00;99.90;;;;;;5053478;28;20080;-72
2023/07/13 04:13:21;;;;;;;8.90;3.20;;;17.00;99.90;;;;;;5049370;28;20068;-72
2023/07/13 04:15:47;;;;;;;11.52;3.20;;;17.00;99.90;;;;;;5053915;28;20044;-72
2023/07/13 04:18:13;;;;;;;11.93;3.72;;;17.00;99.90;;;;;;5034116;28;20411;-71
2023/07/13 04:20:38;;;;;;;12.13;3.35;;;17.00;99.90;;;;;;5027673;28;20162;-72
2023/07/13 04:23:04;;;;;;;8.25;3.38;;;17.00;99.90;;;;;;5053477;28;20044;-72
2023/07/13 04:25:30;;;;;;;10.85;3.20;;;17.00;99.90;;;;;;5038894;28;20613;-71
2023/07/13 04:27:56;;;;;;;10.65;3.25;;;17.00;99.90;;;;;;5053307;28;20059;-71
2023/07/13 04:30:23;;;;;;;10.73;3.53;;;17.00;99.90;;;;;;5049745;28;20052;-72
2023/07/13 04:32:52;;;;;;;9.43;3.42;;;17.00;99.90;;;;;;5039364;28;21117;-72
2023/07/13 04:35:20;;;;;;;8.35;3.30;;;17.00;99.90;;;;;;5050702;28;20144;-71
2023/07/13 04:37:46;;;;;;;9.75;3.45;;;17.00;99.90;;;;;;5032243;28;20487;-72
2023/07/13 04:40:12;;;;;;;11.43;3.60;;;17.00;99.90;;;;;;5057548;28;20449;-72
2023/07/13 04:42:38;;;;;;;9.85;3.65;;;17.00;99.90;;;;;;5060044;28;20051;-72
2023/07/13 04:45:06;;;;;;;12.35;3.55;;;17.00;99.90;;;;;;5028482;28;20044;-71
2023/07/13 04:47:32;;;;;;;13.50;4.07;;;17.00;99.90;;;;;;5034918;28;20048;-72
2023/07/13 04:49:58;;;;;;;8.32;3.20;;;17.00;99.90;;;;;;5040169;28;20051;-72
2023/07/13 04:52:24;;;;;;;10.20;4.05;;;17.00;99.90;;;;;;5040335;28;20057;-72
2023/07/13 04:54:50;;;;;;;9.75;3.38;;;17.00;99.90;;;;;;5058273;28;20044;-72
2023/07/13 04:57:16;;;;;;;10.40;3.65;;;17.00;99.90;;;;;;5049024;28;20463;-72
2023/07/13 04:59:41;;;;;;;11.65;4.28;;;17.00;99.90;;;;;;5039890;28;20223;-72
2023/07/13 05:02:08;;;;;;;9.15;3.92;;;17.00;99.90;;;;;;5055198;28;20068;-71
2023/07/13 05:04:33;;;;;;;8.73;3.08;;;17.00;99.90;;;;;;5050398;28;20136;-71
2023/07/13 05:06:59;;;;;;;11.88;3.80;;;16.90;99.90;;;;;;5029019;28;21616;-73
2023/07/13 05:09:25;;;;;;;9.60;3.45;;;16.90;99.90;;;;;;5038699;28;20122;-70
2023/07/13 05:11:51;;;;;;;11.23;3.95;;;16.90;99.90;;;;;;5058962;28;20048;-70
2023/07/13 05:14:17;;;;;;;10.32;3.53;;;16.90;99.90;;;;;;5053884;28;20048;-71
2023/07/13 05:16:43;;;;;;;11.55;3.50;;;16.90;99.90;;;;;;5035483;28;20468;-71
2023/07/13 05:19:09;;;;;;;9.13;3.70;;;16.90;99.90;;;;;;5039332;28;20056;-72
2023/07/13 05:21:35;;;;;;;10.70;3.57;;;16.90;99.90;;;;;;5046703;28;21327;-71
2023/07/13 05:24:01;;;;;;;12.27;3.80;;;17.00;99.90;;;;;;5037371;28;20043;-72
2023/07/13 05:26:27;;;;;;;10.85;3.72;;;17.10;99.90;;;;;;5055719;28;20044;-71
2023/07/13 05:28:52;;;;;;;8.80;3.55;;;17.10;99.90;;;;;;5036380;28;20044;-72
2023/07/13 05:31:18;;;;;;;10.30;4.07;;;17.20;99.90;;;;;;5024884;28;20071;-70
2023/07/13 05:33:44;;;;;;;12.48;3.85;;;17.30;99.90;;;;;;5031006;28;20527;-72
2023/07/13 05:36:10;;;;;;;9.30;3.53;;;17.30;99.90;;;;;;5049131;28;20047;-73
2023/07/13 05:38:36;;;;;;;11.20;3.90;;;17.40;99.90;;;;;;5047529;28;20082;-72
2023/07/13 05:41:01;;;;;;;10.02;4.00;;;17.50;99.90;;;;;;5026242;28;20796;-72
2023/07/13 05:43:27;;;;;;;10.88;4.25;;;17.60;99.90;;;;;;5034352;28;20081;-73
2023/07/13 05:45:54;;;;;;;9.45;4.00;;;17.70;99.90;;;;;;5046128;28;20124;-72
2023/07/13 05:48:20;;;;;;;11.82;4.00;;;17.70;99.90;;;;;;5052005;28;20064;-73
2023/07/13 05:50:47;;;;;;;10.38;4.05;;;17.70;99.90;;;;;;5026019;28;20146;-72
2023/07/13 05:53:13;;;;;;;15.93;5.38;;;17.80;99.90;;;;;;5031934;28;20048;-72
2023/07/13 05:55:52;;;;;;;10.95;3.53;;;17.90;99.90;;;;;;5030152;28;20044;-72
2023/07/13 05:58:19;;;;;;;11.82;4.25;;;17.90;99.90;;;;;;5035446;28;20044;-74
2023/07/13 06:00:46;;;;;;;9.25;4.20;;;18.00;99.90;;;;;;5031470;28;20049;-72
2023/07/13 06:03:11;;;;;;;14.20;4.40;;;18.10;99.90;;;;;;5047708;28;20040;-73
2023/07/13 06:05:38;;;;;;;10.00;4.03;;;18.10;99.90;;;;;;5040607;28;20136;-72
2023/07/13 06:08:05;;;;;;;9.98;3.58;;;18.20;99.90;;;;;;5032260;28;20530;-73
2023/07/13 06:10:33;;;;;;;12.75;4.32;;;18.20;99.90;;;;;;5039774;28;20040;-73
2023/07/13 06:12:59;;;;;;;9.68;3.78;;;18.20;99.90;;;;;;5035934;28;20484;-73
2023/07/13 06:15:25;;;;;;;12.23;4.20;;;18.20;99.90;;;;;;5047779;28;20075;-72
2023/07/13 06:17:51;;;;;;;11.68;4.20;;;18.30;99.90;;;;;;5022004;28;20040;-73
2023/07/13 06:20:16;;;;;;;9.60;3.88;;;18.30;99.90;;;;;;5025241;28;20048;-72
2023/07/13 06:22:42;;;;;;;12.05;4.20;;;18.40;99.90;;;;;;5042555;28;20059;-72
2023/07/13 06:25:08;;;;;;;11.05;4.07;;;18.50;99.90;;;;;;5021610;28;20105;-73
2023/07/13 06:27:34;;;;;;;10.80;3.72;;;18.50;99.90;;;;;;5023563;28;20051;-72
2023/07/13 06:30:00;;;;;;;13.52;4.40;;;18.60;99.90;;;;;;5042911;28;20045;-72
2023/07/13 06:32:26;;;;;;;10.25;3.60;;;18.70;99.90;;;;;;5035169;28;20099;-72
2023/07/13 06:34:52;;;;;;;10.15;4.03;;;18.70;99.90;;;;;;5040595;28;20044;-72
2023/07/13 06:37:18;;;;;;;12.23;4.18;;;18.80;99.90;;;;;;5043846;28;20106;-72
2023/07/13 06:39:44;;;;;;;11.98;3.50;;;18.80;99.90;;;;;;5026241;28;20043;-71
2023/07/13 06:42:10;;;;;;;13.48;4.32;;;18.90;99.90;;;;;;5023233;28;20040;-72
2023/07/13 06:44:36;;;;;;;10.32;4.30;;;18.90;99.90;;;;;;5019883;28;20049;-72
2023/07/13 06:47:02;;;;;;;9.80;3.75;;;19.00;99.90;;;;;;5042754;28;20095;-72
2023/07/13 06:49:28;;;;;;;12.65;4.00;;;19.00;99.90;;;;;;5043614;28;20040;-72
2023/07/13 06:51:54;;;;;;;15.48;4.10;;;19.00;99.90;;;;;;5031893;28;20044;-73
2023/07/13 06:54:19;;;;;;;10.73;3.60;;;19.10;99.90;;;;;;5045735;28;20033;-72
2023/07/13 06:56:45;;;;;;;11.70;3.63;;;19.10;99.90;;;;;;5050111;28;20538;-73
2023/07/13 06:59:11;;;;;;;8.23;3.22;;;19.10;99.90;;;;;;5051638;28;20056;-74
2023/07/13 07:01:36;;;;;;;10.35;4.03;;;19.30;99.90;;;;;;5026018;28;20111;-74
2023/07/13 07:04:03;;;;;;;10.32;3.65;;;19.30;99.90;;;;;;5035802;28;20056;-72
2023/07/13 07:06:29;;;;;;;11.15;3.78;;;19.50;99.90;;;;;;5049382;28;20136;-72
2023/07/13 07:08:55;;;;;;;11.75;4.25;;;19.50;99.90;;;;;;5047459;28;20391;-73
2023/07/13 07:11:23;;;;;;;9.07;3.35;;;19.60;99.90;;;;;;5051740;28;20044;-74
2023/07/13 07:13:50;;;;;;;12.15;4.00;;;19.60;99.90;;;;;;5053682;28;20050;-74
2023/07/13 07:16:16;;;;;;;10.00;3.88;;;19.60;99.90;;;;;;5031251;28;22107;-71
2023/07/13 07:18:42;;;;;;;10.65;3.65;;;19.70;99.90;;;;;;5047260;28;20053;-70
2023/07/13 07:21:08;;;;;;;10.82;3.42;;;19.90;99.90;;;;;;5048711;28;20495;-71
2023/07/13 07:23:34;;;;;;;9.38;3.90;;;20.00;99.90;;;;;;5045810;28;20186;-71
2023/07/13 07:26:00;;;;;;;12.55;3.65;;;20.10;99.90;;;;;;5035634;28;20056;-70
2023/07/13 07:28:28;;;;;;;9.57;4.00;;;20.10;99.90;;;;;;5053751;28;20449;-71
2023/07/13 07:30:55;;;;;;;8.48;3.60;;;20.10;99.90;;;;;;5045166;28;20052;-71
2023/07/13 07:33:21;;;;;;;21.13;7.50;;;20.20;99.90;;;;;;5058304;28;20057;-71
2023/07/13 07:35:47;;;;;;;10.13;3.80;;;20.20;99.90;;;;;;5028710;28;20037;-70
2023/07/13 07:38:12;;;;;;;12.40;5.07;;;20.20;99.90;;;;;;5031802;28;20081;-71
2023/07/13 07:40:40;;;;;;;11.25;4.65;;;20.20;99.90;;;;;;5050178;28;20044;-71
2023/07/13 07:43:07;;;;;;;10.60;4.10;;;20.20;99.90;;;;;;5036092;28;20052;-71
2023/07/13 07:45:33;;;;;;;10.98;3.80;;;20.20;99.90;;;;;;5045649;28;20105;-69
2023/07/13 07:47:59;;;;;;;12.02;4.00;;;20.10;99.90;;;;;;5055920;28;20048;-71
2023/07/13 07:50:26;;;;;;;12.02;4.10;;;20.10;99.90;;;;;;5050659;28;20060;-71
2023/07/13 07:52:51;;;;;;;11.05;3.60;;;20.10;99.90;;;;;;5047511;28;20063;-70
2023/07/13 07:55:17;;;;;;;12.20;3.92;;;20.00;99.90;;;;;;5049412;28;20515;-72
2023/07/13 07:57:43;;;;;;;11.40;3.90;;;19.90;99.90;;;;;;5039997;28;20391;-70
2023/07/13 08:00:10;;;;;;;8.43;3.50;;;19.80;99.90;;;;;;5035109;28;20450;-71
2023/07/13 08:02:37;;;;;;;10.27;3.70;;;19.80;99.90;;;;;;5033724;28;20048;-71
2023/07/13 08:05:03;;;;;;;;;;;19.80;99.90;;;;;;5044688;28;20157;-70
2023/07/13 08:07:31;;;;;;;11.85;4.20;;;19.80;99.90;;;;;;5035861;28;19924;-71
2023/07/13 08:09:56;;;;;;;11.27;3.92;;;19.80;99.90;;;;;;5056431;28;20040;-68
2023/07/13 08:12:22;;;;;;;15.48;4.70;;;19.80;99.90;;;;;;5059678;28;20110;-70
2023/07/13 08:14:53;;;;;;;11.98;3.92;;;19.90;99.90;;;;;;5047410;28;20136;-72
2023/07/13 08:17:20;;;;;;;16.90;5.50;;;19.90;99.90;;;;;;5049454;28;20057;-75
2023/07/13 08:19:46;;;;;;;13.73;5.20;;;20.00;99.90;;;;;;5052256;28;20040;-75
2023/07/13 08:22:12;;;;;;;11.98;5.18;;;20.10;99.90;;;;;;5061630;28;20060;-76
2023/07/13 08:24:38;;;;;;;13.10;5.32;;;20.10;99.90;;;;;;5060014;28;20082;-76
2023/07/13 08:27:04;;;;;;;13.65;4.97;;;20.20;99.90;;;;;;5057489;28;20122;-73
2023/07/13 08:29:31;;;;;;;11.75;4.78;;;20.20;99.90;;;;;;5041018;28;20139;-75
2023/07/13 08:32:00;;;;;;;13.50;5.47;;;20.30;99.90;;;;;;5050134;28;20056;-73
2023/07/13 08:34:26;;;;;;;12.90;4.75;;;20.40;99.90;;;;;;5053043;28;20181;-71
2023/07/13 08:36:52;;;;;;;12.85;4.85;;;20.40;99.90;;;;;;5055984;28;20471;-71
2023/07/13 08:39:17;;;;;;;10.45;5.20;;;20.50;99.90;;;;;;5059398;28;20052;-75
2023/07/13 08:41:54;;;;;;;14.00;5.22;;;20.60;99.90;;;;;;5048255;28;20616;-75
2023/07/13 08:44:39;;;;;;;14.48;5.55;;;20.60;99.90;;;;;;5033354;28;20037;-76
2023/07/13 08:47:06;;;;;;;13.60;5.93;;;20.70;99.90;;;;;;5054969;28;20070;-76
2023/07/13 08:49:34;;;;;;;11.15;4.65;;;20.70;99.90;;;;;;5043448;28;20071;-75
2023/07/13 08:52:20;;;;;;;11.35;5.43;;;20.70;99.90;;;;;;5052730;28;20045;-74
2023/07/13 08:54:51;;;;;;;11.32;5.40;;;20.90;99.90;;;;;;5051317;28;20991;-73
2023/07/13 08:57:21;;;;;;;11.95;5.63;;;20.90;99.90;;;;;;5057045;28;20947;-72
2023/07/13 08:59:47;;;;;;;10.57;5.18;;;20.90;99.90;;;;;;5034922;28;20057;-73
2023/07/13 09:02:41;;;;;;;14.43;6.32;;;21.00;99.90;;;;;;5049887;28;21119;-73
2023/07/13 09:05:22;;;;;;;12.23;6.10;;;21.10;99.90;;;;;;5029771;28;20079;-73
2023/07/13 09:08:21;;;;;;;13.75;5.95;;;21.10;99.90;;;;;;5052373;28;20045;-73
2023/07/13 09:10:58;;;;;;;14.55;6.60;;;21.10;99.90;;;;;;5060294;28;20170;-74
2023/07/13 09:13:45;;;;;;;12.05;6.20;;;21.00;99.90;;;;;;5039896;28;20051;-74
2023/07/13 09:16:12;;;;;;;13.73;6.25;;;21.00;99.90;;;;;;5050920;28;20052;-73
2023/07/13 09:19:04;;;;;;;11.75;5.35;;;21.10;99.90;;;;;;5052241;28;20048;-75
2023/07/13 09:21:39;;;;;;;10.88;5.38;;;21.30;99.90;;;;;;5030397;28;20519;-74
2023/07/13 09:24:37;;;;;;;9.38;5.20;;;21.30;99.90;;;;;;5031109;28;20045;-75
2023/07/13 09:27:17;;;;;;;10.02;5.72;;;21.20;99.90;;;;;;5032132;28;20127;-74
2023/07/13 09:29:56;;;;;;;11.93;5.30;;;21.10;99.90;;;;;;5030279;28;20669;-75
2023/07/13 09:32:24;;;;;;;13.25;5.55;;;21.00;99.90;;;;;;5031771;28;20240;-75
2023/07/13 09:34:54;;;;;;;12.70;5.72;;;20.80;99.90;;;;;;5056726;28;20052;-74
2023/07/13 09:37:23;;;;;;;9.63;5.10;;;20.70;99.90;;;;;;5038975;28;20078;-73
2023/07/13 09:39:50;;;;;;;9.63;5.35;;;20.50;99.90;;;;;;5053628;28;20491;-74
2023/07/13 09:42:21;;;;;;;11.07;5.07;;;20.40;99.90;;;;;;5043924;28;20041;-74
2023/07/13 09:44:47;;;;;;;11.93;4.60;;;20.20;99.90;;;;;;5027067;28;20106;-73
2023/07/13 09:47:19;;;;;;;9.27;3.42;;;19.80;99.90;;;;;;5051969;28;20056;-73
2023/07/13 09:49:45;;;;;;;5.65;2.25;;;19.10;99.90;;;;;;5050650;28;20045;-74
2023/07/13 09:52:14;;;;;;;4.95;1.90;;;18.50;99.90;;;;;;5055761;28;20047;-74
2023/07/13 09:54:43;;;;;;;4.00;2.00;;;18.10;99.90;;;;;;5053043;28;20623;-74
2023/07/13 09:57:16;;;;;;;3.63;1.60;;;17.90;99.90;;;;;;5036267;28;20411;-76
2023/07/13 09:59:46;;;;;;;4.32;1.60;;;17.70;99.90;;;;;;5051294;28;20065;-73
2023/07/13 10:02:27;;;;;;;3.85;1.33;;;17.50;99.90;;;;;;5050710;28;20044;-74
2023/07/13 10:05:05;;;;;;;3.13;1.40;;;17.50;99.90;;;;;;5056073;28;20069;-73
2023/07/13 10:07:32;;;;;;;2.47;1.30;;;17.30;99.90;;;;;;5056652;28;20115;-74
2023/07/13 10:10:00;;;;;;;2.55;1.23;;;17.30;99.90;;;;;;5037313;28;20037;-72
2023/07/13 10:12:29;;;;;;;2.88;1.70;;;17.30;99.90;;;;;;5056378;28;20036;-72
2023/07/13 10:14:59;;;;;;;2.67;1.45;;;17.40;99.90;;;;;;5037411;28;20049;-74
2023/07/13 10:17:32;;;;;;;2.40;1.30;;;17.50;99.90;;;;;;5046172;28;20059;-75
2023/07/13 10:20:05;;;;;;;2.15;1.40;;;17.70;99.90;;;;;;5025853;28;20048;-78
2023/07/13 10:22:38;;;;;;;2.22;1.55;;;17.80;99.90;;;;;;5049370;28;20071;-76
2023/07/13 10:25:18;;;;;;;2.65;1.65;;;17.90;99.90;;;;;;5031489;28;20109;-76
2023/07/13 10:27:44;;;;;;;3.10;1.52;;;18.00;99.90;;;;;;5049309;28;20052;-73
2023/07/13 10:30:46;;;;;;;3.63;1.90;;;18.20;99.90;;;;;;5051528;28;20093;-73
2023/07/13 10:33:13;;;;;;;2.55;1.65;;;18.30;99.90;;;;;;4988274;28;20069;-73
2023/07/13 10:35:53;;;;;;;2.22;1.58;;;18.50;99.90;;;;;;5029834;28;20492;-74
2023/07/13 10:38:23;;;;;;;2.28;1.20;;;18.50;99.90;;;;;;5039380;28;20808;-73
2023/07/13 10:41:06;;;;;;;4.00;1.95;;;18.70;99.90;;;;;;5058813;28;20548;-73
2023/07/13 10:43:44;;;;;;;3.03;1.88;;;18.90;99.90;;;;;;5057109;28;20522;-72
2023/07/13 10:46:14;;;;;;;2.53;2.00;;;19.20;99.90;;;;;;5057414;28;20049;-73
2023/07/13 10:48:43;;;;;;;3.42;2.10;;;19.50;99.90;;;;;;5054564;28;20036;-72
2023/07/13 10:51:14;;;;;;;5.40;2.50;;;19.70;99.90;;;;;;5026461;28;20538;-73
2023/07/13 10:53:40;;;;;;;5.53;2.60;;;20.00;99.90;;;;;;5040708;28;20075;-73
2023/07/13 10:56:30;;;;;;;4.47;2.75;;;20.20;99.90;;;;;;5059398;28;20403;-73
2023/07/13 10:59:16;;;;;;;6.78;3.00;;;20.40;99.90;;;;;;5034430;28;20549;-73
2023/07/13 11:01:48;;;;;;;5.25;3.20;;;20.50;99.90;;;;;;5039059;28;20502;-73
2023/07/13 11:04:15;;;;;;;5.72;3.25;;;20.60;99.90;;;;;;5038169;28;20504;-73
2023/07/13 11:06:45;;;;;;;9.20;3.90;;;20.80;99.90;;;;;;5049672;28;20239;-72
2023/07/13 11:09:36;;;;;;;6.13;3.75;;;20.90;99.90;;;;;;5049117;28;20072;-73
2023/07/13 11:12:17;;;;;;;6.00;3.67;;;21.10;99.90;;;;;;5031024;28;20458;-73
2023/07/13 11:14:55;;;;;;;6.65;3.67;;;21.00;99.90;;;;;;5055534;28;20483;-73
2023/07/13 11:17:31;;;;;;;6.68;3.72;;;21.00;99.90;;;;;;5039432;28;20123;-72
2023/07/13 11:20:09;;;;;;;6.80;3.58;;;21.00;99.90;;;;;;5051056;28;20060;-72
2023/07/13 11:22:50;;;;;;;9.20;4.25;;;20.90;99.90;;;;;;5040291;28;20079;-73
2023/07/13 11:25:22;;;;;;;8.20;4.70;;;20.70;99.90;;;;;;5038671;28;20116;-72
2023/07/13 11:28:13;;;;;;;7.88;4.20;;;20.60;99.90;;;;;;5021571;28;20049;-72
2023/07/13 11:30:49;;;;;;;8.18;4.57;;;20.40;99.90;;;;;;5026861;28;20454;-72
2023/07/13 11:33:26;;;;;;;9.35;5.30;;;20.30;99.90;;;;;;5059239;28;20094;-72
2023/07/13 11:35:57;;;;;;;;;;;20.30;99.90;;;;;;5038649;28;20093;-72
2023/07/13 11:38:40;;;;;;;4.35;2.92;;;20.10;99.90;;;;;;5027728;28;22210;-72
2023/07/13 11:41:18;;;;;;;3.97;2.85;;;19.80;99.90;;;;;;5036871;28;20055;-74
2023/07/13 11:43:44;;;;;;;2.67;2.20;;;19.50;99.90;;;;;;5047296;28;20047;-74
2023/07/13 11:46:15;;;;;;;2.30;2.10;;;19.10;99.90;;;;;;5046938;28;20044;-74
2023/07/13 11:48:41;;;;;;;3.72;2.20;;;19.00;99.90;;;;;;5055252;28;20340;-70
2023/07/13 11:51:27;;;;;;;4.43;2.50;;;18.90;99.90;;;;;;5035553;28;20667;-73
2023/07/13 11:53:59;;;;;;;4.63;2.67;;;18.90;99.90;;;;;;5032538;28;20052;-75
2023/07/13 11:56:26;;;;;;;3.80;2.42;;;18.90;99.90;;;;;;5033636;28;20079;-75
2023/07/13 11:58:56;;;;;;;3.50;2.17;;;19.00;99.90;;;;;;5035961;28;20076;-75
2023/07/13 12:01:25;;;;;;;4.25;2.10;;;19.10;99.90;;;;;;5040097;28;20080;-74
2023/07/13 12:03:53;;;;;;;3.55;2.33;;;19.20;99.90;;;;;;5042379;28;21875;-74
2023/07/13 12:06:31;;;;;;;4.65;2.47;;;19.50;99.90;;;;;;5053106;28;20523;-73
2023/07/13 12:09:03;;;;;;;6.00;2.60;;;19.80;99.90;;;;;;5058271;28;20073;-73
2023/07/13 12:11:29;;;;;;;5.10;2.50;;;19.90;99.90;;;;;;5055512;28;20040;-72
2023/07/13 12:13:56;;;;;;;4.40;2.42;;;20.20;99.90;;;;;;5057928;28;20089;-71
2023/07/13 12:16:30;;;;;;;4.93;2.70;;;20.50;99.90;;;;;;5036154;28;20701;-72
2023/07/13 12:18:57;;;;;;;6.93;3.03;;;20.60;99.90;;;;;;5049252;28;20311;-71
2023/07/13 12:21:33;;;;;;;4.30;2.92;;;20.90;99.90;;;;;;5040812;28;20072;-71
2023/07/13 12:24:01;;;;;;;6.53;3.25;;;21.10;99.90;;;;;;5033885;28;20085;-69
2023/07/13 12:26:28;;;;;;;6.13;3.28;;;21.20;99.90;;;;;;5055767;28;20427;-70
2023/07/13 12:28:56;;;;;;;5.22;3.40;;;21.40;99.90;;;;;;5053651;28;20071;-72
2023/07/13 12:31:33;;;;;;;5.68;2.88;;;21.60;99.90;;;;;;5052302;28;20045;-71
2023/07/13 12:34:14;;;;;;;7.95;3.38;;;21.80;99.90;;;;;;5037630;28;20067;-71
2023/07/13 12:36:50;;;;;;;9.68;3.47;;;22.00;99.90;;;;;;5034388;28;20189;-71
2023/07/13 12:39:18;;;;;;;5.55;3.63;;;22.00;99.90;;;;;;5036833;28;20050;-72
2023/07/13 12:41:45;;;;;;;6.07;3.53;;;22.10;99.90;;;;;;5057878;28;20067;-71
2023/07/13 12:44:25;;;;;;;7.68;3.80;;;22.10;99.90;;;;;;5043428;28;20186;-71
2023/07/13 12:47:04;;;;;;;8.57;4.13;;;22.20;99.90;;;;;;5043427;28;20040;-70
2023/07/13 12:49:34;;;;;;;8.35;3.50;;;22.30;99.90;;;;;;5034189;28;20048;-71
2023/07/13 12:52:03;;;;;;;5.65;3.22;;;22.50;99.90;;;;;;5036694;28;20049;-70